sensor_id;sensor_type;location;lat;lon;timestamp;P1;durP1;ratioP1;P2;durP2;ratioP2
28796;SDS011;24974;54.444;18.560;2023-02-28T00:01:36;24.27;;;14.70;;
28796;SDS011;24974;54.444;18.560;2023-02-28T00:04:07;29.83;;;16.13;;
28796;SDS011;24974;54.444;18.560;2023-02-28T00:06:39;36.30;;;15.85;;
28796;SDS011;24974;54.444;18.560;2023-02-28T00:09:10;39.30;;;17.65;;
28796;SDS011;24974;54.444;18.560;2023-02-28T00:11:41;32.55;;;16.38;;
28796;SDS011;24974;54.444;18.560;2023-02-28T00:14:12;33.58;;;17.10;;
28796;SDS011;24974;54.444;18.560;2023-02-28T05:58:35;12.13;;;8.32;;
28796;SDS011;24974;54.444;18.560;2023-02-28T06:01:19;13.98;;;8.30;;
28796;SDS011;24974;54.444;18.560;2023-02-28T06:04:03;14.70;;;9.13;;
28796;SDS011;24974;54.444;18.560;2023-02-28T06:06:35;11.63;;;9.15;;
28796;SDS011;24974;54.444;18.560;2023-02-28T06:09:07;15.65;;;8.35;;
28796;SDS011;24974;54.444;18.560;2023-02-28T06:11:38;12.75;;;8.05;;
28796;SDS011;24974;54.444;18.560;2023-02-28T06:14:18;13.77;;;9.07;;
28796;SDS011;24974;54.444;18.560;2023-02-28T06:16:49;19.40;;;9.30;;
28796;SDS011;24974;54.444;18.560;2023-02-28T06:19:20;12.02;;;8.02;;
28796;SDS011;24974;54.444;18.560;2023-02-28T06:21:53;15.25;;;8.73;;
28796;SDS011;24974;54.444;18.560;2023-02-28T06:24:25;13.45;;;8.73;;
28796;SDS011;24974;54.444;18.560;2023-02-28T06:27:00;16.38;;;9.00;;
28796;SDS011;24974;54.444;18.560;2023-02-28T06:29:35;11.45;;;8.95;;
28796;SDS011;24974;54.444;18.560;2023-02-28T06:32:06;11.82;;;8.20;;
28796;SDS011;24974;54.444;18.560;2023-02-28T06:34:36;13.20;;;9.13;;
28796;SDS011;24974;54.444;18.560;2023-02-28T06:37:07;20.98;;;11.05;;
28796;SDS011;24974;54.444;18.560;2023-02-28T06:39:38;16.95;;;10.18;;
28796;SDS011;24974;54.444;18.560;2023-02-28T06:42:10;14.68;;;10.05;;
28796;SDS011;24974;54.444;18.560;2023-02-28T06:44:41;18.55;;;10.80;;
28796;SDS011;24974;54.444;18.560;2023-02-28T06:47:13;17.77;;;11.35;;
28796;SDS011;24974;54.444;18.560;2023-02-28T06:49:44;18.52;;;11.82;;
28796;SDS011;24974;54.444;18.560;2023-02-28T06:52:15;18.92;;;10.70;;
28796;SDS011;24974;54.444;18.560;2023-02-28T06:54:46;21.73;;;11.88;;
28796;SDS011;24974;54.444;18.560;2023-02-28T06:57:17;22.25;;;10.25;;
28796;SDS011;24974;54.444;18.560;2023-02-28T06:59:48;16.08;;;10.18;;
28796;SDS011;24974;54.444;18.560;2023-02-28T07:02:19;18.23;;;12.43;;
28796;SDS011;24974;54.444;18.560;2023-02-28T07:04:50;17.45;;;11.82;;
28796;SDS011;24974;54.444;18.560;2023-02-28T07:07:21;15.85;;;9.82;;
28796;SDS011;24974;54.444;18.560;2023-02-28T07:09:52;20.50;;;10.20;;
28796;SDS011;24974;54.444;18.560;2023-02-28T07:12:23;15.95;;;9.10;;
28796;SDS011;24974;54.444;18.560;2023-02-28T07:14:54;14.38;;;7.93;;
28796;SDS011;24974;54.444;18.560;2023-02-28T07:17:26;10.43;;;7.13;;
28796;SDS011;24974;54.444;18.560;2023-02-28T07:19:57;14.50;;;7.78;;
28796;SDS011;24974;54.444;18.560;2023-02-28T07:22:27;13.45;;;7.93;;
28796;SDS011;24974;54.444;18.560;2023-02-28T07:24:58;13.27;;;8.10;;
28796;SDS011;24974;54.444;18.560;2023-02-28T07:27:29;12.00;;;8.07;;
28796;SDS011;24974;54.444;18.560;2023-02-28T07:30:00;11.65;;;7.53;;
28796;SDS011;24974;54.444;18.560;2023-02-28T07:32:35;14.10;;;8.05;;
28796;SDS011;24974;54.444;18.560;2023-02-28T07:35:08;12.45;;;7.45;;
28796;SDS011;24974;54.444;18.560;2023-02-28T07:37:39;13.05;;;7.82;;
28796;SDS011;24974;54.444;18.560;2023-02-28T07:40:11;11.43;;;7.13;;
28796;SDS011;24974;54.444;18.560;2023-02-28T07:42:43;12.60;;;7.40;;
28796;SDS011;24974;54.444;18.560;2023-02-28T07:45:14;13.70;;;7.72;;
28796;SDS011;24974;54.444;18.560;2023-02-28T07:47:44;12.10;;;7.00;;
28796;SDS011;24974;54.444;18.560;2023-02-28T07:50:15;11.30;;;6.75;;
28796;SDS011;24974;54.444;18.560;2023-02-28T07:52:46;15.85;;;7.40;;
28796;SDS011;24974;54.444;18.560;2023-02-28T07:55:17;12.98;;;7.25;;
28796;SDS011;24974;54.444;18.560;2023-02-28T07:57:48;16.40;;;7.85;;
28796;SDS011;24974;54.444;18.560;2023-02-28T08:00:19;14.93;;;8.30;;
28796;SDS011;24974;54.444;18.560;2023-02-28T08:02:50;14.10;;;9.15;;
28796;SDS011;24974;54.444;18.560;2023-02-28T08:05:21;16.80;;;10.15;;
28796;SDS011;24974;54.444;18.560;2023-02-28T08:07:52;15.95;;;9.27;;
28796;SDS011;24974;54.444;18.560;2023-02-28T08:10:23;19.88;;;10.07;;
28796;SDS011;24974;54.444;18.560;2023-02-28T08:12:54;17.95;;;10.63;;
28796;SDS011;24974;54.444;18.560;2023-02-28T08:15:25;18.30;;;9.73;;
28796;SDS011;24974;54.444;18.560;2023-02-28T08:17:56;13.43;;;9.15;;
28796;SDS011;24974;54.444;18.560;2023-02-28T08:20:27;18.88;;;9.48;;
28796;SDS011;24974;54.444;18.560;2023-02-28T08:22:57;18.45;;;9.30;;
28796;SDS011;24974;54.444;18.560;2023-02-28T08:25:28;17.02;;;8.95;;
28796;SDS011;24974;54.444;18.560;2023-02-28T08:27:59;15.82;;;9.32;;
28796;SDS011;24974;54.444;18.560;2023-02-28T08:30:30;17.17;;;9.13;;
28796;SDS011;24974;54.444;18.560;2023-02-28T08:33:00;21.10;;;9.90;;
28796;SDS011;24974;54.444;18.560;2023-02-28T08:35:32;16.23;;;9.55;;
28796;SDS011;24974;54.444;18.560;2023-02-28T08:38:05;16.15;;;9.43;;
28796;SDS011;24974;54.444;18.560;2023-02-28T08:40:36;16.77;;;10.07;;
28796;SDS011;24974;54.444;18.560;2023-02-28T08:43:07;17.35;;;9.77;;
28796;SDS011;24974;54.444;18.560;2023-02-28T08:45:37;22.48;;;11.00;;
28796;SDS011;24974;54.444;18.560;2023-02-28T08:48:08;19.33;;;10.80;;
28796;SDS011;24974;54.444;18.560;2023-02-28T08:50:39;18.58;;;9.68;;
28796;SDS011;24974;54.444;18.560;2023-02-28T08:53:10;16.50;;;8.95;;
28796;SDS011;24974;54.444;18.560;2023-02-28T08:55:41;14.75;;;7.82;;
28796;SDS011;24974;54.444;18.560;2023-02-28T08:58:12;12.93;;;7.80;;
28796;SDS011;24974;54.444;18.560;2023-02-28T09:00:42;12.38;;;7.25;;
28796;SDS011;24974;54.444;18.560;2023-02-28T09:03:13;13.15;;;7.00;;
28796;SDS011;24974;54.444;18.560;2023-02-28T09:05:57;12.95;;;7.78;;
28796;SDS011;24974;54.444;18.560;2023-02-28T09:08:30;14.43;;;8.38;;
28796;SDS011;24974;54.444;18.560;2023-02-28T09:11:01;11.98;;;7.47;;
28796;SDS011;24974;54.444;18.560;2023-02-28T09:13:33;11.77;;;7.35;;
28796;SDS011;24974;54.444;18.560;2023-02-28T09:16:05;15.43;;;6.68;;
28796;SDS011;24974;54.444;18.560;2023-02-28T09:18:38;11.00;;;6.25;;
28796;SDS011;24974;54.444;18.560;2023-02-28T09:21:12;9.85;;;6.13;;
28796;SDS011;24974;54.444;18.560;2023-02-28T09:23:45;9.75;;;5.97;;
28796;SDS011;24974;54.444;18.560;2023-02-28T09:26:25;8.70;;;5.20;;
28796;SDS011;24974;54.444;18.560;2023-02-28T09:28:57;10.77;;;4.88;;
28796;SDS011;24974;54.444;18.560;2023-02-28T09:31:29;8.23;;;5.07;;
28796;SDS011;24974;54.444;18.560;2023-02-28T09:34:00;8.70;;;4.57;;
28796;SDS011;24974;54.444;18.560;2023-02-28T09:36:31;11.00;;;5.38;;
28796;SDS011;24974;54.444;18.560;2023-02-28T09:39:03;9.80;;;5.43;;
28796;SDS011;24974;54.444;18.560;2023-02-28T09:41:38;8.52;;;5.03;;
28796;SDS011;24974;54.444;18.560;2023-02-28T09:47:24;10.80;;;5.80;;
28796;SDS011;24974;54.444;18.560;2023-02-28T09:50:03;12.15;;;5.38;;
28796;SDS011;24974;54.444;18.560;2023-02-28T09:53:05;9.13;;;4.60;;
28796;SDS011;24974;54.444;18.560;2023-02-28T09:55:51;10.77;;;5.13;;
28796;SDS011;24974;54.444;18.560;2023-02-28T09:58:49;12.55;;;4.97;;
28796;SDS011;24974;54.444;18.560;2023-02-28T10:01:25;8.23;;;4.97;;
28796;SDS011;24974;54.444;18.560;2023-02-28T10:06:52;8.70;;;5.65;;
28796;SDS011;24974;54.444;18.560;2023-02-28T10:09:27;10.07;;;5.35;;
28796;SDS011;24974;54.444;18.560;2023-02-28T10:12:04;8.90;;;4.93;;
28796;SDS011;24974;54.444;18.560;2023-02-28T10:14:36;9.00;;;5.65;;
28796;SDS011;24974;54.444;18.560;2023-02-28T10:17:12;10.23;;;4.82;;
28796;SDS011;24974;54.444;18.560;2023-02-28T10:19:58;10.70;;;5.20;;
28796;SDS011;24974;54.444;18.560;2023-02-28T10:25:38;10.60;;;4.70;;
28796;SDS011;24974;54.444;18.560;2023-02-28T10:28:11;8.55;;;4.70;;
28796;SDS011;24974;54.444;18.560;2023-02-28T10:30:45;7.30;;;4.10;;
28796;SDS011;24974;54.444;18.560;2023-02-28T10:35:52;14.13;;;4.05;;
28796;SDS011;24974;54.444;18.560;2023-02-28T10:38:28;8.80;;;4.65;;
28796;SDS011;24974;54.444;18.560;2023-02-28T10:41:05;6.85;;;4.43;;
28796;SDS011;24974;54.444;18.560;2023-02-28T10:43:40;6.05;;;3.90;;
28796;SDS011;24974;54.444;18.560;2023-02-28T10:46:16;8.77;;;4.82;;
28796;SDS011;24974;54.444;18.560;2023-02-28T10:49:06;9.48;;;5.85;;
28796;SDS011;24974;54.444;18.560;2023-02-28T10:51:44;9.15;;;5.40;;
28796;SDS011;24974;54.444;18.560;2023-02-28T11:03:11;8.57;;;4.90;;
28796;SDS011;24974;54.444;18.560;2023-02-28T11:06:05;9.32;;;5.35;;
28796;SDS011;24974;54.444;18.560;2023-02-28T11:08:49;11.90;;;5.78;;
28796;SDS011;24974;54.444;18.560;2023-02-28T11:11:24;8.23;;;5.18;;
28796;SDS011;24974;54.444;18.560;2023-02-28T11:14:02;10.23;;;6.28;;
28796;SDS011;24974;54.444;18.560;2023-02-28T11:16:37;11.13;;;6.20;;
28796;SDS011;24974;54.444;18.560;2023-02-28T11:19:14;12.48;;;5.93;;
28796;SDS011;24974;54.444;18.560;2023-02-28T11:22:08;9.60;;;5.50;;
28796;SDS011;24974;54.444;18.560;2023-02-28T11:24:42;7.50;;;5.15;;
28796;SDS011;24974;54.444;18.560;2023-02-28T11:27:40;7.55;;;5.35;;
28796;SDS011;24974;54.444;18.560;2023-02-28T11:36:04;8.18;;;5.07;;
28796;SDS011;24974;54.444;18.560;2023-02-28T11:39:01;8.35;;;4.68;;
28796;SDS011;24974;54.444;18.560;2023-02-28T12:05:49;9.68;;;4.85;;
28796;SDS011;24974;54.444;18.560;2023-02-28T12:20:18;9.35;;;5.38;;
28796;SDS011;24974;54.444;18.560;2023-02-28T12:28:34;7.93;;;4.57;;
28796;SDS011;24974;54.444;18.560;2023-02-28T12:31:14;9.68;;;4.82;;
28796;SDS011;24974;54.444;18.560;2023-02-28T12:33:54;8.88;;;4.25;;
28796;SDS011;24974;54.444;18.560;2023-02-28T12:36:30;13.00;;;4.57;;
28796;SDS011;24974;54.444;18.560;2023-02-28T12:39:08;7.03;;;3.80;;
28796;SDS011;24974;54.444;18.560;2023-02-28T12:41:46;7.47;;;3.75;;
28796;SDS011;24974;54.444;18.560;2023-02-28T12:44:35;7.68;;;3.53;;
28796;SDS011;24974;54.444;18.560;2023-02-28T12:47:15;6.30;;;3.50;;
28796;SDS011;24974;54.444;18.560;2023-02-28T12:49:55;7.18;;;4.30;;
28796;SDS011;24974;54.444;18.560;2023-02-28T13:00:39;5.55;;;3.50;;
28796;SDS011;24974;54.444;18.560;2023-02-28T13:06:34;6.57;;;3.45;;
28796;SDS011;24974;54.444;18.560;2023-02-28T13:09:17;7.32;;;3.25;;
28796;SDS011;24974;54.444;18.560;2023-02-28T13:11:53;6.57;;;3.50;;
28796;SDS011;24974;54.444;18.560;2023-02-28T13:14:30;5.15;;;3.20;;
28796;SDS011;24974;54.444;18.560;2023-02-28T13:19:42;6.68;;;3.70;;
28796;SDS011;24974;54.444;18.560;2023-02-28T13:22:18;6.30;;;3.58;;
28796;SDS011;24974;54.444;18.560;2023-02-28T13:24:54;5.55;;;3.85;;
28796;SDS011;24974;54.444;18.560;2023-02-28T13:27:34;5.57;;;3.70;;
28796;SDS011;24974;54.444;18.560;2023-02-28T13:38:55;7.25;;;4.20;;
28796;SDS011;24974;54.444;18.560;2023-02-28T13:44:22;8.10;;;4.35;;
28796;SDS011;24974;54.444;18.560;2023-02-28T13:49:28;7.32;;;4.50;;
28796;SDS011;24974;54.444;18.560;2023-02-28T14:03:01;8.13;;;5.22;;
28796;SDS011;24974;54.444;18.560;2023-02-28T14:05:42;8.23;;;5.03;;
28796;SDS011;24974;54.444;18.560;2023-02-28T14:08:15;6.72;;;4.55;;
28796;SDS011;24974;54.444;18.560;2023-02-28T14:11:01;12.25;;;5.85;;
28796;SDS011;24974;54.444;18.560;2023-02-28T14:16:20;10.10;;;5.45;;
28796;SDS011;24974;54.444;18.560;2023-02-28T14:19:01;8.15;;;4.88;;
28796;SDS011;24974;54.444;18.560;2023-02-28T14:21:44;12.43;;;5.07;;
28796;SDS011;24974;54.444;18.560;2023-02-28T14:27:22;9.68;;;5.35;;
28796;SDS011;24974;54.444;18.560;2023-02-28T14:33:00;11.50;;;6.28;;
28796;SDS011;24974;54.444;18.560;2023-02-28T14:36:10;7.47;;;4.80;;
28796;SDS011;24974;54.444;18.560;2023-02-28T14:38:47;13.27;;;5.60;;
28796;SDS011;24974;54.444;18.560;2023-02-28T14:41:28;9.15;;;5.65;;
28796;SDS011;24974;54.444;18.560;2023-02-28T14:44:01;14.45;;;5.75;;
28796;SDS011;24974;54.444;18.560;2023-02-28T14:46:43;12.70;;;6.72;;
28796;SDS011;24974;54.444;18.560;2023-02-28T14:49:37;11.32;;;6.30;;
28796;SDS011;24974;54.444;18.560;2023-02-28T14:52:22;10.57;;;6.22;;
28796;SDS011;24974;54.444;18.560;2023-02-28T14:57:34;12.38;;;6.75;;
28796;SDS011;24974;54.444;18.560;2023-02-28T15:02:43;13.20;;;6.82;;
28796;SDS011;24974;54.444;18.560;2023-02-28T15:07:48;13.38;;;7.13;;
28796;SDS011;24974;54.444;18.560;2023-02-28T15:10:30;11.13;;;6.43;;
28796;SDS011;24974;54.444;18.560;2023-02-28T15:13:05;13.07;;;6.43;;
28796;SDS011;24974;54.444;18.560;2023-02-28T15:21:25;10.85;;;6.68;;
28796;SDS011;24974;54.444;18.560;2023-02-28T15:23:59;12.35;;;6.55;;
28796;SDS011;24974;54.444;18.560;2023-02-28T15:26:45;17.73;;;6.90;;
28796;SDS011;24974;54.444;18.560;2023-02-28T15:29:21;13.23;;;6.18;;
28796;SDS011;24974;54.444;18.560;2023-02-28T15:32:00;9.85;;;6.07;;
28796;SDS011;24974;54.444;18.560;2023-02-28T15:34:36;15.65;;;6.57;;
28796;SDS011;24974;54.444;18.560;2023-02-28T15:43:04;10.48;;;6.80;;
28796;SDS011;24974;54.444;18.560;2023-02-28T15:45:38;12.20;;;6.50;;
28796;SDS011;24974;54.444;18.560;2023-02-28T15:48:18;12.18;;;6.32;;
28796;SDS011;24974;54.444;18.560;2023-02-28T15:50:51;11.82;;;6.38;;
28796;SDS011;24974;54.444;18.560;2023-02-28T15:53:47;11.35;;;6.35;;
28796;SDS011;24974;54.444;18.560;2023-02-28T15:56:21;14.60;;;7.10;;
28796;SDS011;24974;54.444;18.560;2023-02-28T15:59:03;12.57;;;6.45;;
28796;SDS011;24974;54.444;18.560;2023-02-28T16:01:43;11.57;;;6.32;;
28796;SDS011;24974;54.444;18.560;2023-02-28T16:04:18;13.70;;;6.72;;
28796;SDS011;24974;54.444;18.560;2023-02-28T16:09:29;10.50;;;6.85;;
28796;SDS011;24974;54.444;18.560;2023-02-28T16:12:01;13.80;;;7.68;;
28796;SDS011;24974;54.444;18.560;2023-02-28T16:15:03;12.93;;;7.18;;
28796;SDS011;24974;54.444;18.560;2023-02-28T16:17:38;14.40;;;7.68;;
28796;SDS011;24974;54.444;18.560;2023-02-28T16:20:13;19.33;;;8.32;;
28796;SDS011;24974;54.444;18.560;2023-02-28T16:22:46;20.08;;;8.65;;
28796;SDS011;24974;54.444;18.560;2023-02-28T16:25:22;12.95;;;7.47;;
28796;SDS011;24974;54.444;18.560;2023-02-28T16:27:58;13.18;;;8.00;;
28796;SDS011;24974;54.444;18.560;2023-02-28T16:30:30;19.35;;;8.40;;
28796;SDS011;24974;54.444;18.560;2023-02-28T16:33:04;16.20;;;9.10;;
28796;SDS011;24974;54.444;18.560;2023-02-28T16:35:35;18.70;;;9.02;;
28796;SDS011;24974;54.444;18.560;2023-02-28T16:38:05;12.57;;;7.70;;
28796;SDS011;24974;54.444;18.560;2023-02-28T16:40:36;13.75;;;7.68;;
28796;SDS011;24974;54.444;18.560;2023-02-28T16:43:09;18.15;;;8.70;;
28796;SDS011;24974;54.444;18.560;2023-02-28T16:45:47;13.65;;;7.40;;
28796;SDS011;24974;54.444;18.560;2023-02-28T16:48:18;13.43;;;8.02;;
28796;SDS011;24974;54.444;18.560;2023-02-28T16:50:49;16.38;;;7.47;;
28796;SDS011;24974;54.444;18.560;2023-02-28T16:53:20;16.77;;;8.07;;
28796;SDS011;24974;54.444;18.560;2023-02-28T16:55:51;18.10;;;8.40;;
28796;SDS011;24974;54.444;18.560;2023-02-28T16:58:22;18.80;;;8.10;;
28796;SDS011;24974;54.444;18.560;2023-02-28T17:00:55;23.08;;;8.40;;
28796;SDS011;24974;54.444;18.560;2023-02-28T17:03:26;16.40;;;8.43;;
28796;SDS011;24974;54.444;18.560;2023-02-28T17:05:58;18.02;;;9.07;;
28796;SDS011;24974;54.444;18.560;2023-02-28T17:08:29;20.20;;;9.55;;
28796;SDS011;24974;54.444;18.560;2023-02-28T17:11:02;15.32;;;8.75;;
28796;SDS011;24974;54.444;18.560;2023-02-28T17:13:33;21.17;;;10.23;;
28796;SDS011;24974;54.444;18.560;2023-02-28T17:16:04;17.90;;;9.23;;
28796;SDS011;24974;54.444;18.560;2023-02-28T17:18:35;19.75;;;10.05;;
28796;SDS011;24974;54.444;18.560;2023-02-28T17:21:11;16.20;;;9.38;;
28796;SDS011;24974;54.444;18.560;2023-02-28T17:23:44;20.35;;;9.65;;
28796;SDS011;24974;54.444;18.560;2023-02-28T17:26:16;17.25;;;8.60;;
28796;SDS011;24974;54.444;18.560;2023-02-28T17:28:50;17.98;;;8.57;;
28796;SDS011;24974;54.444;18.560;2023-02-28T17:31:26;16.95;;;9.45;;
28796;SDS011;24974;54.444;18.560;2023-02-28T17:33:57;21.02;;;9.48;;
28796;SDS011;24974;54.444;18.560;2023-02-28T17:36:28;16.38;;;8.65;;
28796;SDS011;24974;54.444;18.560;2023-02-28T17:39:00;15.45;;;8.30;;
28796;SDS011;24974;54.444;18.560;2023-02-28T17:41:31;16.63;;;9.25;;
28796;SDS011;24974;54.444;18.560;2023-02-28T17:44:02;14.55;;;8.07;;
28796;SDS011;24974;54.444;18.560;2023-02-28T17:46:33;15.90;;;8.20;;
28796;SDS011;24974;54.444;18.560;2023-02-28T17:49:03;18.38;;;9.52;;
28796;SDS011;24974;54.444;18.560;2023-02-28T17:51:34;18.60;;;8.88;;
28796;SDS011;24974;54.444;18.560;2023-02-28T17:54:05;17.92;;;9.07;;
28796;SDS011;24974;54.444;18.560;2023-02-28T17:56:36;18.15;;;9.07;;
28796;SDS011;24974;54.444;18.560;2023-02-28T17:59:08;19.50;;;8.82;;
28796;SDS011;24974;54.444;18.560;2023-02-28T18:01:40;16.13;;;9.05;;
28796;SDS011;24974;54.444;18.560;2023-02-28T18:04:11;19.70;;;9.98;;
28796;SDS011;24974;54.444;18.560;2023-02-28T18:06:45;20.90;;;9.82;;
28796;SDS011;24974;54.444;18.560;2023-02-28T18:09:20;23.38;;;11.50;;
28796;SDS011;24974;54.444;18.560;2023-02-28T18:11:53;26.10;;;11.43;;
28796;SDS011;24974;54.444;18.560;2023-02-28T18:14:25;31.05;;;10.35;;
28796;SDS011;24974;54.444;18.560;2023-02-28T18:16:57;21.80;;;9.73;;
28796;SDS011;24974;54.444;18.560;2023-02-28T18:19:27;22.38;;;10.60;;
28796;SDS011;24974;54.444;18.560;2023-02-28T18:21:58;21.63;;;9.60;;
28796;SDS011;24974;54.444;18.560;2023-02-28T18:24:30;18.27;;;9.70;;
28796;SDS011;24974;54.444;18.560;2023-02-28T18:27:01;19.70;;;8.90;;
28796;SDS011;24974;54.444;18.560;2023-02-28T18:29:32;19.92;;;8.98;;
28796;SDS011;24974;54.444;18.560;2023-02-28T18:32:03;19.00;;;10.13;;
28796;SDS011;24974;54.444;18.560;2023-02-28T18:34:35;19.90;;;9.80;;
28796;SDS011;24974;54.444;18.560;2023-02-28T18:37:06;20.25;;;10.23;;
28796;SDS011;24974;54.444;18.560;2023-02-28T18:39:37;19.15;;;9.25;;
28796;SDS011;24974;54.444;18.560;2023-02-28T18:42:08;19.58;;;9.32;;
28796;SDS011;24974;54.444;18.560;2023-02-28T18:44:39;19.67;;;9.43;;
28796;SDS011;24974;54.444;18.560;2023-02-28T18:47:11;18.80;;;9.88;;
28796;SDS011;24974;54.444;18.560;2023-02-28T18:49:42;18.90;;;11.10;;
28796;SDS011;24974;54.444;18.560;2023-02-28T18:52:12;21.77;;;10.35;;
28796;SDS011;24974;54.444;18.560;2023-02-28T18:54:43;19.02;;;10.32;;
28796;SDS011;24974;54.444;18.560;2023-02-28T18:57:14;22.35;;;11.38;;
28796;SDS011;24974;54.444;18.560;2023-02-28T18:59:45;22.60;;;10.85;;
28796;SDS011;24974;54.444;18.560;2023-02-28T19:02:15;21.33;;;11.35;;
28796;SDS011;24974;54.444;18.560;2023-02-28T19:04:47;22.20;;;11.60;;
28796;SDS011;24974;54.444;18.560;2023-02-28T19:07:17;22.98;;;10.85;;
28796;SDS011;24974;54.444;18.560;2023-02-28T19:09:48;22.33;;;10.23;;
28796;SDS011;24974;54.444;18.560;2023-02-28T19:12:19;23.50;;;11.98;;
28796;SDS011;24974;54.444;18.560;2023-02-28T19:14:50;21.88;;;11.73;;
28796;SDS011;24974;54.444;18.560;2023-02-28T19:17:21;19.60;;;11.02;;
28796;SDS011;24974;54.444;18.560;2023-02-28T19:19:51;22.77;;;11.68;;
28796;SDS011;24974;54.444;18.560;2023-02-28T19:22:22;25.75;;;12.23;;
28796;SDS011;24974;54.444;18.560;2023-02-28T19:24:53;21.65;;;11.00;;
28796;SDS011;24974;54.444;18.560;2023-02-28T19:27:24;19.98;;;11.48;;
28796;SDS011;24974;54.444;18.560;2023-02-28T19:29:55;21.10;;;10.90;;
28796;SDS011;24974;54.444;18.560;2023-02-28T19:32:28;20.00;;;10.43;;
28796;SDS011;24974;54.444;18.560;2023-02-28T19:34:59;20.48;;;10.73;;
28796;SDS011;24974;54.444;18.560;2023-02-28T19:37:29;25.15;;;11.25;;
28796;SDS011;24974;54.444;18.560;2023-02-28T19:40:00;21.42;;;11.50;;
28796;SDS011;24974;54.444;18.560;2023-02-28T19:42:31;20.85;;;10.88;;
28796;SDS011;24974;54.444;18.560;2023-02-28T19:45:03;22.00;;;11.23;;
28796;SDS011;24974;54.444;18.560;2023-02-28T19:47:34;23.63;;;10.75;;
28796;SDS011;24974;54.444;18.560;2023-02-28T19:50:05;17.95;;;10.25;;
28796;SDS011;24974;54.444;18.560;2023-02-28T19:52:37;19.63;;;9.30;;
28796;SDS011;24974;54.444;18.560;2023-02-28T19:55:08;18.55;;;9.15;;
28796;SDS011;24974;54.444;18.560;2023-02-28T19:57:40;19.15;;;9.13;;
28796;SDS011;24974;54.444;18.560;2023-02-28T20:00:12;18.08;;;9.27;;
28796;SDS011;24974;54.444;18.560;2023-02-28T20:02:45;18.92;;;8.07;;
28796;SDS011;24974;54.444;18.560;2023-02-28T20:05:16;16.80;;;9.45;;
28796;SDS011;24974;54.444;18.560;2023-02-28T20:07:47;15.65;;;8.45;;
28796;SDS011;24974;54.444;18.560;2023-02-28T20:10:17;18.48;;;9.52;;
28796;SDS011;24974;54.444;18.560;2023-02-28T20:12:48;17.50;;;9.20;;
28796;SDS011;24974;54.444;18.560;2023-02-28T20:15:20;20.67;;;9.15;;
28796;SDS011;24974;54.444;18.560;2023-02-28T20:17:50;21.15;;;9.82;;
28796;SDS011;24974;54.444;18.560;2023-02-28T20:20:21;19.55;;;8.90;;
28796;SDS011;24974;54.444;18.560;2023-02-28T20:22:54;14.77;;;8.85;;
28796;SDS011;24974;54.444;18.560;2023-02-28T20:25:25;16.85;;;8.50;;
28796;SDS011;24974;54.444;18.560;2023-02-28T20:27:56;18.73;;;9.27;;
28796;SDS011;24974;54.444;18.560;2023-02-28T20:30:27;18.58;;;9.02;;
28796;SDS011;24974;54.444;18.560;2023-02-28T20:32:57;14.70;;;8.10;;
28796;SDS011;24974;54.444;18.560;2023-02-28T20:35:28;18.02;;;8.23;;
28796;SDS011;24974;54.444;18.560;2023-02-28T20:37:59;17.70;;;8.70;;
28796;SDS011;24974;54.444;18.560;2023-02-28T20:40:30;12.52;;;7.57;;
28796;SDS011;24974;54.444;18.560;2023-02-28T20:43:01;16.38;;;6.50;;
28796;SDS011;24974;54.444;18.560;2023-02-28T20:45:31;13.48;;;6.57;;
28796;SDS011;24974;54.444;18.560;2023-02-28T20:48:03;14.77;;;7.63;;
28796;SDS011;24974;54.444;18.560;2023-02-28T20:50:34;19.98;;;7.85;;
28796;SDS011;24974;54.444;18.560;2023-02-28T20:53:05;15.45;;;7.82;;
28796;SDS011;24974;54.444;18.560;2023-02-28T20:55:36;14.02;;;7.05;;
28796;SDS011;24974;54.444;18.560;2023-02-28T20:58:07;13.65;;;7.57;;
28796;SDS011;24974;54.444;18.560;2023-02-28T21:00:37;15.00;;;7.82;;
28796;SDS011;24974;54.444;18.560;2023-02-28T21:03:08;13.68;;;7.50;;
28796;SDS011;24974;54.444;18.560;2023-02-28T21:05:39;17.27;;;8.02;;
28796;SDS011;24974;54.444;18.560;2023-02-28T21:08:10;13.77;;;6.85;;
28796;SDS011;24974;54.444;18.560;2023-02-28T21:10:41;20.88;;;8.43;;
28796;SDS011;24974;54.444;18.560;2023-02-28T21:13:11;15.80;;;8.43;;
28796;SDS011;24974;54.444;18.560;2023-02-28T21:15:42;15.63;;;8.45;;
28796;SDS011;24974;54.444;18.560;2023-02-28T21:18:13;15.68;;;8.15;;
28796;SDS011;24974;54.444;18.560;2023-02-28T21:20:44;13.27;;;7.50;;
28796;SDS011;24974;54.444;18.560;2023-02-28T21:23:15;12.98;;;8.07;;
28796;SDS011;24974;54.444;18.560;2023-02-28T21:25:46;14.63;;;8.25;;
28796;SDS011;24974;54.444;18.560;2023-02-28T21:28:17;16.55;;;8.52;;
28796;SDS011;24974;54.444;18.560;2023-02-28T21:30:48;13.40;;;8.20;;
28796;SDS011;24974;54.444;18.560;2023-02-28T21:33:19;18.77;;;11.68;;
28796;SDS011;24974;54.444;18.560;2023-02-28T21:35:49;14.55;;;7.65;;
28796;SDS011;24974;54.444;18.560;2023-02-28T21:38:21;18.17;;;7.85;;
28796;SDS011;24974;54.444;18.560;2023-02-28T21:40:52;15.27;;;8.20;;
28796;SDS011;24974;54.444;18.560;2023-02-28T21:43:23;14.68;;;7.90;;
28796;SDS011;24974;54.444;18.560;2023-02-28T21:45:55;14.25;;;12.02;;
28796;SDS011;24974;54.444;18.560;2023-02-28T21:48:30;13.63;;;8.57;;
28796;SDS011;24974;54.444;18.560;2023-02-28T21:51:03;18.23;;;9.88;;
28796;SDS011;24974;54.444;18.560;2023-02-28T21:53:36;14.63;;;8.35;;
28796;SDS011;24974;54.444;18.560;2023-02-28T21:56:12;14.20;;;8.68;;
28796;SDS011;24974;54.444;18.560;2023-02-28T21:58:46;18.40;;;8.50;;
28796;SDS011;24974;54.444;18.560;2023-02-28T22:01:18;15.20;;;8.32;;
28796;SDS011;24974;54.444;18.560;2023-02-28T22:03:51;17.55;;;9.35;;
28796;SDS011;24974;54.444;18.560;2023-02-28T22:06:23;20.55;;;8.75;;
28796;SDS011;24974;54.444;18.560;2023-02-28T22:08:56;14.15;;;8.02;;
28796;SDS011;24974;54.444;18.560;2023-02-28T22:11:28;17.52;;;8.52;;
28796;SDS011;24974;54.444;18.560;2023-02-28T22:13:59;16.50;;;11.02;;
28796;SDS011;24974;54.444;18.560;2023-02-28T22:16:31;14.77;;;7.82;;
28796;SDS011;24974;54.444;18.560;2023-02-28T22:19:04;14.70;;;8.52;;
28796;SDS011;24974;54.444;18.560;2023-02-28T22:21:37;14.75;;;7.75;;
28796;SDS011;24974;54.444;18.560;2023-02-28T22:24:11;14.63;;;8.35;;
28796;SDS011;24974;54.444;18.560;2023-02-28T22:26:41;23.73;;;17.88;;
28796;SDS011;24974;54.444;18.560;2023-02-28T22:29:12;12.50;;;7.50;;
28796;SDS011;24974;54.444;18.560;2023-02-28T22:31:43;16.10;;;8.40;;
28796;SDS011;24974;54.444;18.560;2023-02-28T22:34:14;15.63;;;11.02;;
28796;SDS011;24974;54.444;18.560;2023-02-28T22:36:45;19.60;;;8.63;;
28796;SDS011;24974;54.444;18.560;2023-02-28T22:39:16;21.35;;;9.10;;
28796;SDS011;24974;54.444;18.560;2023-02-28T22:41:47;15.38;;;8.95;;
28796;SDS011;24974;54.444;18.560;2023-02-28T22:44:17;15.75;;;8.23;;
28796;SDS011;24974;54.444;18.560;2023-02-28T22:46:52;15.07;;;8.48;;
28796;SDS011;24974;54.444;18.560;2023-02-28T22:49:23;18.02;;;8.45;;
28796;SDS011;24974;54.444;18.560;2023-02-28T22:51:54;18.20;;;9.23;;
28796;SDS011;24974;54.444;18.560;2023-02-28T22:54:25;18.65;;;9.98;;
28796;SDS011;24974;54.444;18.560;2023-02-28T22:56:56;18.38;;;9.52;;
28796;SDS011;24974;54.444;18.560;2023-02-28T22:59:27;16.73;;;8.52;;